Timeline UpdatesTrip UpdatesNews PostsPvt PostsTravel TipsAdmin PostsConv PostsFollowed PostsChat RequestsBlog PostsPNR Posts

Disclaimer
Search
 
 
Fri Sep 19, 2014 07:17:29 ISTHomeTrainsΣChainsAtlasPNRForumGalleryNewsFAQTripsMembersLoginFeedback
No Recent News for this Train
Other Trains in the News **new
Latest...
there are good chances of tkt to be confmed upto WL 80. in non peak season. condition may be different for diwali or peak season.
Wed Feb 26, 2014 (02:31PM)
⇐ Return Journey: Train# 19020

19019/Mumbai Bandra Terminus- Dehradun Express

Time-Table HAS CHANGED.
Sep 03 (9:51AM)
Change Departure Station:
Change Arrival Station:
Post a Train Travel TipPost a Train Travel Tip **new
Post a Comment/Question/Picture/VideoPost a Comment/Question/Picture/Video
Pantry/Catering
✕ NO Pantry Car
✓ Catering Avbl
Loco/Rake Reversals
SRE/Saharanpur Junction (6); LRJ/Laksar Junction (4);
RSA - Rake Sharing
Rake/Coach Composition
LOCO-SLR-S9-S8-S7-S6-S5-S4-S3-S2-S1-AB1-GEN-GEN-HCPV-SLR;;; S9,S8,S7,S6 -(BANDRA TERMINUS-HARIDWAR); Rest Coaches-(BANDRA TERMINUS-DEHRADUN) ; Entry# 571623.
Loco
GZB WAP7 - (BDTS - NZM) TKD WDP 3A -...
Read more...
(NZM - DDN).
News    PNR    Forum    Time-Table    Availability    Fare Chart    Map    Arr/Dep History    Trips    Gallery    ΣChains    X/O    Timeline    
Travel Time: 1h 58m    4 halts    Distance: 44 km    Avg Speed: 22 km/hr
Type: Mail/Express
Zone: WR/Western
Departs @ 04:35
Platform# 2
SMTWTFS
Faridabad/FDB 
Arrives @ 06:33
Platform# 1
SMTWTFS
Ghaziabad Junction/GZB 

4 halts. 11 intermediate Stations between Faridabad and Ghaziabad Junction

Show ALL intermediate Stations  Show Old Time-Table

#CodeStation NameX/OArrivesAvgDepartsAvgHaltPFDay#KmSpeedElevZoneAddress
1BDTSMumbai Bandra Terminus (5)  -00:05-11-1346.4374mWRMumbai 400050, Maharashtra
2BVIMumbai Borivali (8)O  00:38 00:35-00:40-2 5m61-1327.75019mWRMumbai - 400092, Maharashtra
3BSRVasai Road (7)O  01:03 01:01-01:05 01:03-2m31-1310.3747mWRVasai 401202, Maharashtra
4PLGPalghar (3)X  01:35-01:37-2m11-1270.75219mWRPalghar, Maharashtra
5DRDDahanu Road (5)X  02:15-02:17-2m11-1237.79112mWRDahanu, Maharashtra
6VAPIVapi (3)X  02:49-02:51-2m11-1189.25427mWRVapi, Gujarat
7BLValsad (3)X  03:23 03:20-03:25-2 5m11-1163.05715mWRValsad, Gujarat
8BIMBilimora Junction (4)  03:44-03:46-2m11-1145.07911mWRBilimora, Gujarat
9NVSNavsari (3)  04:02-04:04-2m11-1123.94914mWRNavsari, Gujarat
10STSurat (4)X  04:40-04:45-5m11-1094.27219mWRSurat 395001, Gujarat
11KSBKosamba Junction (3)05:11-05:13-2m--1-1062.913930mWRKosamba, Gujarat
12AKVAnkleshwar Junction (4)X  05:19 05:21-05:21 05:23-2m11-1044.34319mWRAnkleshwar, Gujarat
13BHBharuch Junction (5)X  05:34 05:36-05:36 05:38-2m31-1035.08719mWRBharuch, Gujarat
14MYGMiyagam Karjan (2)  06:04 06:06-06:06 06:08-2m21-994.35629mWRKarjan, Gujarat
15BRCVadodara Junction (7)XO  06:40-06:50-10m21-964.56736mWRVadodara 390005, Gujarat
16SMLASamlaya Junction (3)  07:12 07:14-07:14 07:16-2m21-937.86767mWRVadodara, Gujarat
17CPNChampaner Road Junction  07:24 07:26-07:26 07:28-2m21-926.65478mWRPanchmahal, Gujarat
18DRLDerolX  07:40 07:42-07:42 07:44-2m21-914.17681mWRKalol, Gujarat
19KRSAKharsaliya (2)X  07:52 07:54-07:54 07:56-2m21-901.427107mWRPanchmahal, Gujarat
20GDAGodhra Junction (3)O  08:20-08:25-5m21-890.658122mWRGodhra, Gujarat
21SATSant Road (2)  08:44 08:46-08:46 08:47-2 1m21-870.265169mWROrwara, Gujarat
22PPDPiplod Junction  08:56 08:58-08:58 08:59-2 1m21-858.468209mWRPiplod, Gujarat
23LMKLimkhedaXO  09:04 09:06-09:06 09:08-2m21-850.425205mWRLimkheda, Gujarat
24MAMMangal Mahudi (2)X  09:27 09:29-09:29 09:30-2 1m21-841.897248mWRDabhada, Gujarat
25DHDDahod (3)XO  09:50 09:45-09:55 09:50-5m21-817.545313mWRDahod, Gujarat
26BIOBordi (2)  10:02 10:04-10:04 10:05-2 1m--1-806.968289mWRNational Highway 59, Gujarat
27ANASAnas (2)X  10:10 10:12-10:12 10:13-2 1m--1-798.973288mWRMadhya Pradesh 389154 ?, Madhya Pradesh
28MGNMeghnagar (3)  10:23 10:25-10:25 10:27-2m--1-784.360317mWRJhabua, Madhya Pradesh
29THDRThandla Road (2)  10:33 10:35-10:35 10:36-2 1m--1-776.464317mWRJhabua, Madhya Pradesh
30PCNPanch Pipila (2)  10:47 10:49-10:49 10:50-2 1m--1-762.452369mWRSH 39A, Madhya Pradesh
31AGRAmargarh (2)  10:59 11:01-11:01 11:02-2 1m--1-753.050410mWRSH 39A, Madhya Pradesh
32BMIBamnia (2)  11:06 11:07-11:08 11:09-2m--1-748.845392mWRBamnia, Madhya Pradesh
33BOGBhairongarh (2)  11:15 11:17-11:17 11:18-2 1m--1-742.865374mWRBhairongarh Railway Station, Madhya Pradesh
34RTIRaoti (2)X  11:27 11:29-11:29 11:30-2 1m--1-731.054409mWRState Highway 39A, Madhya Pradesh
35BILDBildi (2)X  11:36 11:38-11:38 11:39-2 1m--1-723.860422mWRMadhya Pradesh, Madhya Pradesh
36MRNMorwani (2)X  11:46 11:48-11:48 11:49-2 1m--1-714.821459mWRDantoda, Madhya Pradesh
37RTMRatlam Junction (7)X  12:20-12:40-20m51-704.049495mWRRatlam, Madhya Pradesh
38BODBangrod  12:50 12:52-12:52 12:53-2 1m--1-694.255484mWRRatlam, Madhya Pradesh
39RNHRunkhera  12:59 13:01-13:01 13:02-2 1m--1-686.957478mWRUjjain, Madhya Pradesh
40KUHKhachrod (2)X  13:11 13:13-13:13 13:15-2m--1-676.414497mWRUjjain, Madhya Pradesh
41NADNagda Junction (4)  14:15-14:25-10m11-662.657468mWRNagda, Madhya Pradesh
42MEPMahidpur RoadX  14:43-14:45-2m--1-645.580493mWCRGogapur, Madhya Pradesh
43LNRLuni RichhaX  14:53-14:55-2m--1-634.961471mWCRAlote, Madhya Pradesh
44VMAVikramgarh Alot (2)  15:08-15:10-2m21-621.751443mWCRKota Division, Madhya Pradesh
45THURThuria  15:19-15:21-2m--1-614.071430mWCRMDR 45, Madhya Pradesh
46CMUChau Mahla (3)X  15:33-15:35-2m21-599.866426mWCRJhalawar, Rajasthan
47SVASuwasra (2)X  15:48 15:49-15:50-2 1m--1-584.562450mWCRSuwasra, Madhya Pradesh
48SGZShamgarh (3)X  16:03-16:08-5m--1-571.059463mWCRMandsaur, Madhya Pradesh
49GOHGaroth (2)X  16:18 16:19-16:20-2 1m21-560.272441mWCRMadhya Pradesh 458880, Madhya Pradesh
50BWMBhawani Mandi (3)X  16:39-16:41-2m--1-537.658384mWCRBhawani Mandi, Madhya Pradesh
51JHWJhalawar Road (3)  16:58-17:00-2m--1-521.157361mWCRJhalawar City, Rajasthan
52RMARamganj Mandi Junction (3)X  17:13-17:15-2m--1-508.742358mWCRRamganj Mandi, Rajasthan
53MKXMorak (2)  17:28-17:30-2m--1-499.668337mWCRMorak, Rajasthan
54DARADaraX  17:43-17:45-2m--1-484.960354mWCRDara, Rajasthan
55DKNTDakaniya Talav (2)O  18:33 18:23-18:35 18:25-2m11-446.814278mWCRKota, Rajasthan
56KOTAKota Junction (5)X  19:00 19:05-19:30 19:35-30m11-437.436256mWCRKota, Rajasthan
57GQLGurla  19:39 19:44-19:41 19:46-2m--1-432.053251mWCRSH 33, Rajasthan
58KPTNKeshorai PatanXO  19:50 19:55-19:52 19:57-2m--1-424.186243mWCRSH 33, Rajasthan
59LKELakheri (3)X  20:22 20:30-20:24 20:32-2m--1-377.051228mWCRBundi, Rajasthan
60IDGIndargarh Sumerganj Mandi (2)XO  20:38 20:45-20:40 20:47-2m--1-366.053247mWCRIndargarh, Rajasthan
61SWMSawai Madhopur Junction (4)  21:10 21:28-21:15 21:30-5 2m--1-329.879266mWCRSawai Madhopur, Rajasthan
62MLZMalarnaO  21:43 21:53-21:45 21:55-2m--1-299.645236mWCRSawai Madhopur, Rajasthan
63GGCGangapur City (3)  22:35 22:40-22:40 22:45-5m21-265.889270mWCRGangapur, Rajasthan
64SMBJShri Mahabirji (3)  23:10 23:08-23:12 23:10-2m--1-231.847240mWCRKarauli, Rajasthan
65HANHindaun City (2)O  23:23-23:25-2m--1-221.644230mWCRKarauli, Rajasthan
66BXNBayana Junction (3)  00:10-00:15-5m--2-188.757198mWCRBayana, Rajasthan
67BTEBharatpur Junction (5)X  00:55 00:59-01:00-5 1m--2-146.725174mWCRBharatpur, Rajasthan
68MTJMathura Junction (10)  02:20-02:25-5m32-113.275179mNCRMathura, Uttar Pradesh
69KSVKosi Kalan (3)  02:58-03:00-2m12-71.748189mNCRKosi Kalan, Uttar Pradesh
70PWLPalwal (8)O  03:53-03:55-2m--2-29.262200mNRPalwal, Haryana
71ASTAsaoti (5)  04:08 04:06-04:10 04:08-2m32-18.059203mNRAsaoti, Haryana
72BVHBallabgarh (5)  04:20 04:18-04:22 04:20-2m32-8.137203mNRFaridabad, Haryana
73FDBFaridabad (4)»  04:33-04:35-2m220.039206mNRold Faridabad, Haryana
74TKDTuglakabad (4)  04:47 04:52-04:49 04:54-2m--211.145213mNRNear Tughlakabad Metro Station, Delhi NCT
75OKAOkhla (4)O  05:06 05:02-05:08 05:04-2m--217.114221mNRIshwar Nagar Mathura Road, Delhi NCT
76NZMDelhi Hazrat Nizamuddin (7)XO05:25 05:20-05:50-25 30m1220.842209mNRNew Delhi 110013, Delhi NCT
77SBBSahibabad Junction (5)X  06:11 06:13-06:13 06:15-2m--236.822209mNRGhaziabad, Uttar Pradesh
78GZBGhaziabad Junction (6)•  06:33-06:35-2m1243.559217mNRGhaziabad, Uttar Pradesh
79GZNNew Ghaziabad (2)  06:41-06:43-2m--249.470213mNRGhaziabad, Uttar Pradesh
80MUDMuradnagar (2)  06:53-06:55-2m--261.267220mNRGhaziabad, Uttar Pradesh
81MDNRModinagar (2)X  07:04-07:06-2m--271.349221mNRGhaziabad, Uttar Pradesh
82MTCMeerut City Junction (6)XO  07:25 07:30-08:30 08:43-65 73m4290.852229mNRMeerut, Uttar Pradesh
83MUTMeerut Cantt. (2)  08:38 08:48-08:40 08:50-2m--295.125230mNRMeerut, Uttar Pradesh
84PQYPabli Khas (1) new halt!!X  09:01-09:03-2m--299.733229mNRMeerut, Uttar Pradesh
85DRLADaurala (1) new halt!!X  09:15-09:17-2m--2106.257232mNRMeerut, Uttar Pradesh
86KATKhatauli (2)  09:58 09:36-10:00 09:38-2m12124.234239mNRKhatauli, Uttar Pradesh
87JDWJarauda Nara (1) new halt!!X  10:09-10:10-1m--2141.614245mNRMuzaffarNagar, Uttar Pradesh
88MOZMuzaffarnagar (3)X  10:35 10:30-10:37 10:32-2m22146.333247mNRMuzaffarNagar, Uttar Pradesh
89BMHRBamanheri (2) new halt!!X  10:41-10:43-2m--2151.350249mNRMuzaffarnagar, Uttar Pradesh
90DBDDeoband (2)X  11:13 11:06-11:15 11:08-2m--2170.431258mNRSaharanpur, Uttar Pradesh
91SRESaharanpur Junction (6)XO12:10 12:15-12:45-35 30m52204.677276mNRSaharanpur, Uttar Pradesh
92RKRoorkee (3)  13:15 13:12-13:17-2 5m12239.338264mNRRoorkee - 247667, Uttarakhand
93LRJLaksar Junction (4)X13:45-14:10-25m--2257.169238mNRLaksar, Uttarakhand
94JWPJwalapur  14:30-14:32-2m12280.013292mNRHaridwar, Uttarakhand
95HWHaridwar Junction (9)X  14:50-15:15 15:20-25 30m12284.027294mNRHaridwar, Uttarakhand
96MOTCMotichur (2)  15:25 15:30-15:27 15:32-2m12288.536312mNRHaridwar, Uttarakhand
97RWLRaiwala Junction (2)  15:48 15:43-15:50 15:45-2m12295.227361mNRRishikesh, Uttarakhand
98DWODoiwala  16:33 16:31-16:35 16:33-2m12315.819484mNRDehradun, Uttarakhand
99DDNDehradun (4)  17:35--32335.7-648mNRDehradun, Uttarakhand
Scroll to Top
Scroll to Bottom